Biggs Park, North Carolina
Current Conditions -  °F | °C
As of 2:54 PM on Friday 28 Nov 2014 (Local Time) from KLBT Reporting Station
Clear Clear  
Wind Chill: 43°   Ceiling: Unl
Heat Index: 47°   Visibility: 10mi
Dew Point: 19°   Wind: 8mph
Humidity: 33%   Direction: 310°NW
Pressure: 30.31"   Gusts: NA
Location:  34.6279°N, 79.0055°W
Report Text: KLBT 281954Z AUTO 31007KT 10SM CLR 08/M07 A3031 RMK AO2 SLP264 T00831072
Loading
Personal Weather Stations






























Interactive Weather Map New forecast layout! Learn more

10-Day Weather Forecast

Advertisements
Track Severe Weather on mobile